Time;durP1;ratioP1;P1;durP2;ratioP2;P2;SDS_P1;SDS_P2;PMS_P1;PMS_P2;Temp;Humidity;BMP_temperature;BMP_pressure;BME280_temperature;BME280_humidity;BME280_pressure;Samples;Min_cycle;Max_cycle;Signal;HPM_P1;HPM_P2
2022/03/29 00:00:21;;;;;;;189.03;179.70;;;8.00;99.90;;;;;;4372496;32;20168;-57
2022/03/29 00:02:48;;;;;;;190.87;181.47;;;7.80;99.90;;;;;;4363317;32;20603;-58
2022/03/29 00:05:15;;;;;;;196.50;186.67;;;7.80;99.90;;;;;;4362726;33;20212;-57
2022/03/29 00:07:44;;;;;;;191.20;181.93;;;7.80;99.90;;;;;;4362851;33;20167;-58
2022/03/29 00:10:11;;;;;;;196.13;186.40;;;7.90;99.90;;;;;;4363907;32;20157;-58
2022/03/29 00:12:38;;;;;;;196.17;186.43;;;7.90;99.90;;;;;;4362523;33;20471;-58
2022/03/29 00:15:07;;;;;;;187.63;178.33;;;7.80;99.90;;;;;;4362701;32;20161;-57
2022/03/29 00:17:34;;;;;;;180.23;171.00;;;7.80;99.90;;;;;;4371814;32;20218;-60
2022/03/29 00:20:01;;;;;;;176.57;167.60;;;7.80;99.90;;;;;;4375864;32;20203;-58
2022/03/29 00:22:28;;;;;;;184.93;175.37;;;7.90;99.90;;;;;;4377673;32;20145;-55
2022/03/29 00:24:56;;;;;;;177.20;168.40;;;7.90;99.90;;;;;;4364879;32;20173;-58
2022/03/29 00:27:23;;;;;;;183.40;174.20;;;7.80;99.90;;;;;;4362755;32;20206;-58
2022/03/29 00:29:50;;;;;;;179.77;170.30;;;7.80;99.90;;;;;;4362393;32;20188;-58
2022/03/29 00:32:17;;;;;;;186.13;176.90;;;7.90;99.90;;;;;;4364145;32;20248;-57
2022/03/29 00:34:44;;;;;;;199.63;189.80;;;7.90;99.90;;;;;;4366811;32;20561;-58
2022/03/29 00:37:11;;;;;;;211.90;201.83;;;7.90;99.90;;;;;;4382209;32;20172;-56
2022/03/29 00:39:38;;;;;;;209.57;199.23;;;8.00;99.90;;;;;;4390594;32;20191;-58
2022/03/29 00:42:06;;;;;;;211.73;201.43;;;8.00;99.90;;;;;;4370055;32;20228;-58
2022/03/29 00:44:35;;;;;;;207.13;196.77;;;8.00;99.90;;;;;;4362584;32;20226;-59
2022/03/29 00:47:03;;;;;;;213.30;202.93;;;8.00;99.90;;;;;;4364372;32;20211;-59
2022/03/29 00:49:29;;;;;;;205.67;195.70;;;8.10;99.90;;;;;;4363495;32;20201;-59
2022/03/29 00:51:59;;;;;;;209.47;199.17;;;8.10;99.90;;;;;;4365485;32;20598;-58
2022/03/29 00:54:27;;;;;;;213.90;203.27;;;8.10;99.90;;;;;;4363379;32;20201;-58
2022/03/29 00:56:57;;;;;;;201.20;191.30;;;8.10;99.90;;;;;;4363655;32;20606;-58
2022/03/29 00:59:25;;;;;;;210.73;200.20;;;8.00;99.90;;;;;;4375024;32;20588;-58
2022/03/29 01:01:52;;;;;;;200.77;190.57;;;7.90;99.90;;;;;;4383479;32;20164;-57
2022/03/29 01:04:20;;;;;;;198.17;188.30;;;7.90;99.90;;;;;;4377169;32;20565;-56
2022/03/29 01:06:47;;;;;;;195.37;185.87;;;7.90;99.90;;;;;;4384070;32;20219;-58
2022/03/29 01:09:15;;;;;;;207.13;197.17;;;7.90;99.90;;;;;;4384912;32;20168;-57
2022/03/29 01:11:43;;;;;;;209.07;198.37;;;7.80;99.90;;;;;;4364697;32;20158;-55
2022/03/29 01:14:11;;;;;;;206.00;196.07;;;7.80;99.90;;;;;;4383651;32;20192;-58
2022/03/29 01:19:26;;;;;;;192.43;182.83;;;7.90;99.90;;;;;;4390594;32;20226;-58
2022/03/29 01:21:57;;;;;;;212.00;201.57;;;7.90;99.90;;;;;;4379036;32;20207;-58
2022/03/29 01:24:25;;;;;;;212.90;202.80;;;7.80;99.90;;;;;;4380704;32;20159;-58
2022/03/29 01:26:53;;;;;;;214.77;204.13;;;7.90;99.90;;;;;;4401293;32;20199;-58
2022/03/29 01:29:21;;;;;;;217.20;206.90;;;7.90;99.90;;;;;;4391352;32;20587;-58
2022/03/29 01:31:49;;;;;;;211.17;200.83;;;8.00;99.90;;;;;;4385892;32;20278;-58
2022/03/29 01:34:17;;;;;;;212.30;201.77;;;8.00;99.90;;;;;;4377527;32;20602;-58
2022/03/29 01:36:44;;;;;;;210.87;200.20;;;8.00;99.90;;;;;;4376845;32;20589;-58
2022/03/29 01:39:12;;;;;;;218.23;207.80;;;8.00;99.90;;;;;;4376646;32;20217;-59
2022/03/29 01:41:39;;;;;;;215.97;205.57;;;7.90;99.90;;;;;;4376744;32;20223;-59
2022/03/29 01:44:06;;;;;;;203.70;193.77;;;8.00;99.90;;;;;;4378205;32;20225;-59
2022/03/29 01:46:33;;;;;;;211.27;201.03;;;8.00;99.90;;;;;;4384399;32;20214;-59
2022/03/29 01:49:01;;;;;;;191.97;182.60;;;8.00;99.90;;;;;;4390050;32;20221;-58
2022/03/29 01:51:28;;;;;;;202.27;192.10;;;8.00;99.90;;;;;;4385739;32;20224;-59
2022/03/29 01:53:56;;;;;;;197.80;187.97;;;8.00;99.90;;;;;;4378211;32;20215;-60
2022/03/29 01:56:27;;;;;;;213.63;203.30;;;7.90;99.90;;;;;;4377146;32;20208;-58
2022/03/29 01:58:54;;;;;;;192.73;183.40;;;7.90;99.90;;;;;;4377077;32;20243;-57
2022/03/29 02:01:21;;;;;;;217.77;207.27;;;7.80;99.90;;;;;;4376799;32;20479;-59
2022/03/29 02:03:48;;;;;;;202.53;192.93;;;7.80;99.90;;;;;;4379007;32;20180;-58
2022/03/29 02:06:15;;;;;;;207.47;197.27;;;7.80;99.90;;;;;;4375481;32;20224;-58
2022/03/29 02:08:42;;;;;;;198.70;189.30;;;7.80;99.90;;;;;;4376465;32;20171;-58
2022/03/29 02:11:09;;;;;;;209.50;199.63;;;7.80;99.90;;;;;;4375994;32;20216;-58
2022/03/29 02:13:38;;;;;;;190.23;181.00;;;7.80;99.90;;;;;;4380203;32;20210;-57
2022/03/29 02:16:06;;;;;;;187.83;178.60;;;7.80;99.90;;;;;;4375750;32;20232;-58
2022/03/29 02:18:33;;;;;;;188.80;179.60;;;7.70;99.90;;;;;;4376100;32;20556;-58
2022/03/29 02:20:59;;;;;;;210.10;200.27;;;7.70;99.90;;;;;;4375636;32;20215;-59
2022/03/29 02:23:26;;;;;;;189.27;180.00;;;7.80;99.90;;;;;;4381094;32;20153;-58
2022/03/29 02:25:53;;;;;;;198.77;189.17;;;7.80;99.90;;;;;;4392760;32;20198;-58
2022/03/29 02:28:20;;;;;;;199.40;190.07;;;7.80;99.90;;;;;;4385871;32;20244;-58
2022/03/29 02:30:48;;;;;;;197.97;188.57;;;7.70;99.90;;;;;;4380454;32;20211;-58
2022/03/29 02:33:15;;;;;;;182.77;173.60;;;7.80;99.90;;;;;;4376963;32;20182;-58
2022/03/29 02:35:42;;;;;;;185.13;176.07;;;7.70;99.90;;;;;;4392547;32;20545;-58
2022/03/29 02:38:11;;;;;;;185.30;176.10;;;7.70;99.90;;;;;;4389179;32;20174;-57
2022/03/29 02:40:38;;;;;;;174.77;166.27;;;7.70;99.90;;;;;;4390464;32;20163;-57
2022/03/29 02:43:05;;;;;;;172.03;163.67;;;7.60;99.90;;;;;;4390162;32;20149;-60
2022/03/29 02:45:32;;;;;;;177.77;169.23;;;7.50;99.90;;;;;;4386444;32;20223;-58
2022/03/29 02:48:00;;;;;;;185.43;176.73;;;7.50;99.90;;;;;;4375561;32;20179;-58
2022/03/29 02:50:27;;;;;;;174.23;165.83;;;7.60;99.90;;;;;;4384410;32;20166;-59
2022/03/29 02:52:56;;;;;;;186.83;177.97;;;7.50;99.90;;;;;;4391845;32;20227;-58
2022/03/29 02:55:24;;;;;;;172.47;163.97;;;7.50;99.90;;;;;;4379013;32;20153;-59
2022/03/29 02:57:51;;;;;;;182.23;173.37;;;7.50;99.90;;;;;;4275718;32;3218005;-59
2022/03/29 03:00:19;;;;;;;170.63;162.40;;;7.50;99.90;;;;;;4371025;32;20153;-58
2022/03/29 03:02:47;;;;;;;181.80;172.80;;;7.40;99.90;;;;;;4360742;32;20213;-58
2022/03/29 03:05:15;;;;;;;175.33;166.73;;;7.50;99.90;;;;;;4370427;32;20144;-58
2022/03/29 03:07:44;;;;;;;181.10;172.43;;;7.50;99.90;;;;;;4376479;32;20227;-58
2022/03/29 03:10:12;;;;;;;175.43;167.00;;;7.50;99.90;;;;;;4362259;32;20172;-58
2022/03/29 03:12:40;;;;;;;174.23;166.00;;;7.50;99.90;;;;;;4367291;32;20186;-58
2022/03/29 03:15:09;;;;;;;170.63;162.43;;;7.40;99.90;;;;;;4367201;32;20192;-58
2022/03/29 03:17:36;;;;;;;181.67;172.93;;;7.40;99.90;;;;;;4364773;32;20138;-59
2022/03/29 03:20:04;;;;;;;174.90;166.50;;;7.30;99.90;;;;;;4372613;32;20215;-58
2022/03/29 03:22:34;;;;;;;174.50;165.87;;;7.40;99.90;;;;;;4375040;32;20159;-57
2022/03/29 03:25:00;;;;;;;179.47;171.03;;;7.30;99.90;;;;;;4372198;32;20144;-58
2022/03/29 03:27:27;;;;;;;173.37;164.83;;;7.30;99.90;;;;;;4366387;32;20168;-58
2022/03/29 03:29:54;;;;;;;176.10;167.57;;;7.20;99.90;;;;;;4360116;33;20141;-58
2022/03/29 03:32:21;;;;;;;177.67;169.07;;;7.20;99.90;;;;;;4360371;33;20175;-58
2022/03/29 03:34:47;;;;;;;175.17;166.97;;;7.40;99.90;;;;;;4365056;32;20220;-57
2022/03/29 03:37:14;;;;;;;169.00;160.60;;;7.20;99.90;;;;;;4374943;32;20152;-58
2022/03/29 03:39:45;;;;;;;167.07;159.20;;;7.20;99.90;;;;;;4375489;32;20196;-60
2022/03/29 03:42:12;;;;;;;164.83;156.77;;;7.10;99.90;;;;;;4362522;32;20266;-58
2022/03/29 03:44:39;;;;;;;168.27;160.20;;;7.10;99.90;;;;;;4365262;32;20205;-57
2022/03/29 03:47:08;;;;;;;160.93;153.13;;;7.10;99.90;;;;;;4362982;32;20220;-58
2022/03/29 03:49:35;;;;;;;167.77;159.53;;;7.10;99.90;;;;;;4360165;33;20142;-59
2022/03/29 03:52:01;;;;;;;166.67;158.50;;;7.30;99.90;;;;;;4360700;33;20592;-58
2022/03/29 03:54:28;;;;;;;173.13;164.73;;;7.20;99.90;;;;;;4360086;33;20213;-58
2022/03/29 03:56:57;;;;;;;175.23;166.47;;;7.20;99.90;;;;;;4371576;32;20228;-58
2022/03/29 03:59:23;;;;;;;175.97;167.50;;;7.20;99.90;;;;;;4375832;32;20202;-58
2022/03/29 04:01:50;;;;;;;175.13;166.40;;;7.20;99.90;;;;;;4362028;32;20169;-57
2022/03/29 04:04:17;;;;;;;182.03;173.03;;;7.20;99.90;;;;;;4363872;32;20472;-56
2022/03/29 04:06:44;;;;;;;179.20;170.27;;;7.30;99.90;;;;;;4373229;32;20157;-58
2022/03/29 04:09:10;;;;;;;182.30;173.33;;;7.30;99.90;;;;;;4360148;32;20233;-58
2022/03/29 04:11:37;;;;;;;173.20;164.60;;;7.30;99.90;;;;;;4361418;32;20217;-57
2022/03/29 04:14:06;;;;;;;169.87;161.87;;;7.30;99.90;;;;;;4362034;32;20166;-57
2022/03/29 04:16:33;;;;;;;181.53;172.97;;;7.30;99.90;;;;;;4362235;32;20236;-57
2022/03/29 04:19:00;;;;;;;173.73;165.37;;;7.30;99.90;;;;;;4360348;33;20164;-57
2022/03/29 04:21:27;;;;;;;174.70;166.00;;;7.30;99.90;;;;;;4359761;33;20179;-57
2022/03/29 04:23:54;;;;;;;195.00;185.77;;;7.30;99.90;;;;;;4364693;32;20164;-57
2022/03/29 04:26:20;;;;;;;170.13;161.93;;;7.30;99.90;;;;;;4364424;32;20224;-58
2022/03/29 04:28:47;;;;;;;179.77;171.40;;;7.30;99.90;;;;;;4366596;32;20145;-57
2022/03/29 04:31:15;;;;;;;172.80;164.47;;;7.30;99.90;;;;;;4377604;32;20140;-58
2022/03/29 04:33:45;;;;;;;151.60;144.13;;;7.30;99.90;;;;;;4377522;32;20640;-58
2022/03/29 04:36:12;;;;;;;157.03;149.43;;;7.30;99.90;;;;;;4377195;32;20172;-57
2022/03/29 04:38:38;;;;;;;169.47;161.53;;;7.20;99.90;;;;;;4362718;33;20646;-57
2022/03/29 04:41:05;;;;;;;170.47;162.57;;;7.20;99.90;;;;;;4363557;32;20145;-58
2022/03/29 04:43:32;;;;;;;147.23;139.77;;;7.10;99.90;;;;;;4377028;32;20176;-57
2022/03/29 04:46:01;;;;;;;151.47;143.90;;;7.10;99.90;;;;;;4377104;32;20160;-57
2022/03/29 04:48:30;;;;;;;143.33;136.20;;;7.00;99.90;;;;;;4375344;32;20223;-59
2022/03/29 04:50:57;;;;;;;151.30;143.73;;;7.00;99.90;;;;;;4378426;32;20166;-57
2022/03/29 04:53:23;;;;;;;187.47;178.67;;;7.00;99.90;;;;;;4377645;32;20158;-58
2022/03/29 04:55:51;;;;;;;172.60;164.63;;;7.00;99.90;;;;;;4378331;32;20159;-58
2022/03/29 04:58:18;;;;;;;169.67;161.50;;;7.00;99.90;;;;;;4365805;32;20500;-58
2022/03/29 05:00:44;;;;;;;180.60;172.10;;;7.00;99.90;;;;;;4366142;32;20703;-57
2022/03/29 05:03:11;;;;;;;179.30;170.93;;;7.00;99.90;;;;;;4377462;32;20223;-58
2022/03/29 05:05:39;;;;;;;170.60;162.40;;;7.10;99.90;;;;;;4375016;32;20157;-56
2022/03/29 05:08:07;;;;;;;161.93;154.20;;;7.10;99.90;;;;;;4372756;32;20246;-59
2022/03/29 05:10:36;;;;;;;179.97;171.77;;;7.10;99.90;;;;;;4376433;32;20179;-59
2022/03/29 05:13:03;;;;;;;174.87;166.73;;;7.00;99.90;;;;;;4375383;32;20199;-58
2022/03/29 05:15:30;;;;;;;174.53;166.30;;;7.00;99.90;;;;;;4376771;32;20175;-58
2022/03/29 05:17:57;;;;;;;173.73;165.23;;;7.00;99.90;;;;;;4372881;32;20183;-59
2022/03/29 05:20:24;;;;;;;171.33;162.97;;;7.00;99.90;;;;;;4372909;32;20508;-58
2022/03/29 05:22:53;;;;;;;169.93;161.47;;;7.00;99.90;;;;;;4374357;32;20149;-59
2022/03/29 05:25:22;;;;;;;175.20;166.73;;;7.00;99.90;;;;;;4372369;32;20511;-55
2022/03/29 05:27:50;;;;;;;169.63;161.43;;;7.00;99.90;;;;;;4368183;32;20150;-59
2022/03/29 05:30:16;;;;;;;177.23;168.83;;;7.00;99.90;;;;;;4377604;32;20577;-57
2022/03/29 05:32:43;;;;;;;169.97;162.07;;;7.10;99.90;;;;;;4375725;32;20191;-56
2022/03/29 05:35:13;;;;;;;172.00;163.80;;;7.10;99.90;;;;;;4373363;32;20565;-59
2022/03/29 05:37:42;;;;;;;170.07;161.73;;;7.10;99.90;;;;;;4373685;32;20465;-58
2022/03/29 05:40:12;;;;;;;180.40;172.03;;;7.00;99.90;;;;;;4372808;32;20231;-58
2022/03/29 05:42:39;;;;;;;164.00;155.97;;;7.00;99.90;;;;;;4375992;32;20184;-57
2022/03/29 05:45:07;;;;;;;165.47;157.27;;;7.10;99.90;;;;;;4375853;32;20149;-58
2022/03/29 05:50:19;;;;;;;164.33;156.13;;;7.10;99.90;;;;;;4373760;32;20530;-57
2022/03/29 05:52:46;;;;;;;158.53;150.93;;;7.10;99.90;;;;;;4373929;32;20157;-57
2022/03/29 05:55:15;;;;;;;159.53;151.83;;;7.10;99.90;;;;;;4373343;32;20881;-57
2022/03/29 05:57:42;;;;;;;157.93;150.47;;;7.10;99.90;;;;;;4371608;32;20581;-59
2022/03/29 06:00:11;;;;;;;159.90;152.47;;;7.10;99.90;;;;;;4372592;32;20202;-57
2022/03/29 06:02:38;;;;;;;154.20;146.90;;;7.10;99.90;;;;;;4375744;32;20145;-58
2022/03/29 06:05:07;;;;;;;158.37;150.43;;;7.10;99.90;;;;;;4375075;32;20227;-58
2022/03/29 06:07:34;;;;;;;161.73;154.10;;;7.10;99.90;;;;;;4368148;32;20211;-57
2022/03/29 06:10:00;;;;;;;162.60;154.77;;;7.10;99.90;;;;;;4368120;32;20216;-56
2022/03/29 06:12:29;;;;;;;153.57;146.03;;;7.00;99.90;;;;;;4372317;32;20164;-57
2022/03/29 06:14:55;;;;;;;167.17;159.13;;;7.00;99.90;;;;;;4373305;32;20252;-58
2022/03/29 06:17:22;;;;;;;158.13;150.70;;;7.10;99.90;;;;;;4371327;32;20663;-58
2022/03/29 06:19:49;;;;;;;169.90;161.77;;;7.10;99.90;;;;;;4371604;32;20534;-58
2022/03/29 06:22:16;;;;;;;170.53;162.37;;;7.10;99.90;;;;;;4371471;32;20614;-58
2022/03/29 06:24:42;;;;;;;167.07;158.83;;;7.10;99.90;;;;;;4373133;32;20581;-58
2022/03/29 06:27:09;;;;;;;173.37;165.20;;;7.10;99.90;;;;;;4372920;32;20167;-58
2022/03/29 06:29:38;;;;;;;172.47;164.17;;;7.10;99.90;;;;;;4372559;32;20224;-58
2022/03/29 06:32:06;;;;;;;150.27;142.53;;;7.10;99.90;;;;;;4372098;32;20198;-58
2022/03/29 06:34:33;;;;;;;152.63;145.00;;;7.20;99.90;;;;;;4376023;32;20195;-58
2022/03/29 06:37:00;;;;;;;159.53;151.30;;;7.20;99.90;;;;;;4361294;32;20184;-56
2022/03/29 06:39:29;;;;;;;149.53;141.53;;;7.20;99.90;;;;;;4363640;32;20620;-58
2022/03/29 06:41:56;;;;;;;162.07;153.83;;;7.20;99.90;;;;;;4361019;32;20203;-58
2022/03/29 06:44:23;;;;;;;163.80;155.27;;;7.20;99.90;;;;;;4360720;33;20203;-58
2022/03/29 06:46:51;;;;;;;158.90;150.60;;;7.20;99.90;;;;;;4362208;32;20172;-58
2022/03/29 06:49:18;;;;;;;157.97;149.83;;;7.20;99.90;;;;;;4362007;32;20225;-58
2022/03/29 06:51:47;;;;;;;153.03;145.30;;;7.20;99.90;;;;;;4376487;32;20179;-59
2022/03/29 06:54:15;;;;;;;154.37;146.43;;;7.30;99.90;;;;;;4375796;32;20164;-58
2022/03/29 06:56:42;;;;;;;147.43;139.57;;;7.40;99.90;;;;;;4375126;32;20156;-58
2022/03/29 06:59:10;;;;;;;151.80;144.20;;;7.40;99.90;;;;;;4374947;32;20163;-56
2022/03/29 07:01:37;;;;;;;155.10;147.50;;;7.40;99.90;;;;;;4362741;32;20162;-58
2022/03/29 07:04:07;;;;;;;153.67;146.03;;;7.40;99.90;;;;;;4362462;32;20212;-58
2022/03/29 07:06:34;;;;;;;144.60;137.17;;;7.50;99.90;;;;;;4360528;32;20471;-58
2022/03/29 07:11:47;;;;;;;135.03;128.13;;;7.50;99.90;;;;;;4363034;32;20255;-59
2022/03/29 07:14:14;;;;;;;147.87;140.17;;;7.40;99.90;;;;;;4360334;33;20148;-57
2022/03/29 07:16:42;;;;;;;143.97;136.90;;;7.50;99.90;;;;;;4360476;33;20184;-57
2022/03/29 07:19:11;;;;;;;147.53;140.07;;;7.50;99.90;;;;;;4360584;32;20141;-58
2022/03/29 07:21:39;;;;;;;141.53;134.03;;;7.50;99.90;;;;;;4367544;32;20145;-58
2022/03/29 07:24:06;;;;;;;143.37;135.73;;;7.50;99.90;;;;;;4367927;32;20564;-58
2022/03/29 07:26:34;;;;;;;142.97;135.60;;;7.50;99.90;;;;;;4360301;33;20160;-57
2022/03/29 07:29:01;;;;;;;147.57;140.00;;;7.60;99.90;;;;;;4360297;33;20142;-58
2022/03/29 07:31:28;;;;;;;142.10;134.90;;;7.60;99.90;;;;;;4368583;32;20182;-59
2022/03/29 07:33:55;;;;;;;155.87;147.93;;;7.70;99.90;;;;;;4374862;32;20194;-55
2022/03/29 07:36:23;;;;;;;151.37;143.60;;;7.80;99.90;;;;;;4375720;32;20448;-56
2022/03/29 07:38:50;;;;;;;139.73;132.70;;;7.80;99.90;;;;;;4375489;32;20620;-59
2022/03/29 07:41:17;;;;;;;145.70;138.17;;;7.80;99.90;;;;;;4373099;32;20203;-58
2022/03/29 07:43:45;;;;;;;133.53;126.70;;;7.90;99.90;;;;;;4375125;32;20136;-58
2022/03/29 07:46:13;;;;;;;143.53;136.40;;;8.00;99.90;;;;;;4373794;32;20198;-57
2022/03/29 07:48:39;;;;;;;139.63;132.60;;;8.10;99.90;;;;;;4375133;32;20489;-59
2022/03/29 07:51:06;;;;;;;143.57;136.53;;;8.10;99.90;;;;;;4372195;32;20270;-56
2022/03/29 07:53:38;;;;;;;142.47;135.40;;;8.20;99.90;;;;;;4368548;32;20163;-59
2022/03/29 07:56:07;;;;;;;135.13;128.30;;;8.30;99.90;;;;;;4359985;33;20252;-58
2022/03/29 07:58:33;;;;;;;138.77;131.87;;;8.40;99.90;;;;;;4360298;33;20500;-55
2022/03/29 08:01:00;;;;;;;142.13;134.80;;;8.50;99.90;;;;;;4361319;32;20165;-59
2022/03/29 08:03:32;;;;;;;148.30;141.00;;;8.80;99.90;;;;;;4361117;32;20514;-58
2022/03/29 08:05:59;;;;;;;138.63;131.77;;;8.90;99.90;;;;;;4364795;32;20134;-59
2022/03/29 08:08:27;;;;;;;145.53;138.10;;;9.00;99.90;;;;;;4364628;32;20580;-56
2022/03/29 08:10:55;;;;;;;137.07;129.87;;;9.00;99.90;;;;;;4363404;32;20147;-59
2022/03/29 08:13:23;;;;;;;142.10;134.83;;;8.80;99.90;;;;;;4366240;32;20229;-58
2022/03/29 08:15:53;;;;;;;142.10;134.93;;;8.60;99.90;;;;;;4368096;32;20220;-58
2022/03/29 08:18:20;;;;;;;143.50;136.13;;;8.70;99.90;;;;;;4368930;32;20145;-59
2022/03/29 08:20:48;;;;;;;137.13;130.00;;;8.60;99.90;;;;;;4363100;32;20141;-57
2022/03/29 08:23:15;;;;;;;133.70;126.90;;;8.50;99.90;;;;;;4367739;32;20172;-58
2022/03/29 08:25:43;;;;;;;133.37;126.57;;;8.50;99.90;;;;;;4363026;33;20224;-57
2022/03/29 08:28:12;;;;;;;130.50;123.83;;;8.50;99.90;;;;;;4367294;32;20146;-57
2022/03/29 08:30:39;;;;;;;133.93;127.07;;;8.60;99.90;;;;;;4369049;32;20166;-56
2022/03/29 08:33:06;;;;;;;129.17;122.50;;;8.60;99.90;;;;;;4370450;32;20148;-56
2022/03/29 08:35:34;;;;;;;132.77;126.07;;;8.70;99.90;;;;;;4377608;32;20150;-56
2022/03/29 08:38:01;;;;;;;138.10;131.33;;;8.80;99.90;;;;;;4377706;32;20588;-58
2022/03/29 08:40:28;;;;;;;126.23;119.43;;;8.90;99.90;;;;;;4377728;32;20199;-58
2022/03/29 08:42:58;;;;;;;135.27;128.43;;;8.70;99.90;;;;;;4368576;32;20178;-56
2022/03/29 08:45:28;;;;;;;141.27;133.80;;;8.70;99.90;;;;;;4362727;33;20343;-57
2022/03/29 08:47:56;;;;;;;132.87;126.10;;;8.80;99.90;;;;;;4362625;33;20175;-57
2022/03/29 08:50:25;;;;;;;128.20;121.23;;;8.90;99.90;;;;;;4362539;33;20160;-55
2022/03/29 08:52:53;;;;;;;127.73;120.97;;;8.90;99.90;;;;;;4366062;32;20174;-55
2022/03/29 08:55:21;;;;;;;133.07;126.17;;;9.00;99.90;;;;;;4362245;32;20150;-55
2022/03/29 08:57:54;;;;;;;139.03;131.73;;;9.20;99.90;;;;;;4362324;32;20220;-56
2022/03/29 09:00:23;;;;;;;127.73;120.97;;;9.30;99.90;;;;;;4362638;32;20166;-57
2022/03/29 09:02:52;;;;;;;132.77;125.87;;;9.50;99.90;;;;;;4368918;32;20155;-56
2022/03/29 09:05:23;;;;;;;128.30;122.03;;;9.60;99.90;;;;;;4366569;32;20160;-55
2022/03/29 09:07:52;;;;;;;129.30;122.70;;;9.60;99.90;;;;;;4365150;32;20176;-55
2022/03/29 09:10:21;;;;;;;129.30;122.77;;;9.70;99.90;;;;;;4362262;33;20151;-58
2022/03/29 09:12:48;;;;;;;126.80;120.33;;;9.90;99.90;;;;;;4364742;32;20173;-57
2022/03/29 09:15:17;;;;;;;127.13;120.47;;;10.00;99.90;;;;;;4372238;32;20175;-56
2022/03/29 09:17:46;;;;;;;128.57;121.73;;;9.90;99.90;;;;;;4371365;32;20165;-56
2022/03/29 09:20:16;;;;;;;128.20;121.70;;;9.90;99.90;;;;;;4362264;33;20147;-56
2022/03/29 09:22:47;;;;;;;125.70;119.40;;;9.70;99.90;;;;;;4364331;32;20136;-56
2022/03/29 09:25:18;;;;;;;129.03;122.47;;;9.80;99.90;;;;;;4375977;32;20227;-55
2022/03/29 09:27:57;;;;;;;132.33;125.50;;;9.90;99.90;;;;;;4376951;32;20160;-56
2022/03/29 09:30:25;;;;;;;126.43;119.80;;;10.20;99.90;;;;;;4376110;32;20146;-58
2022/03/29 09:33:02;;;;;;;129.37;122.57;;;10.40;99.90;;;;;;4370490;32;20224;-56
2022/03/29 09:35:31;;;;;;;125.83;119.30;;;10.30;99.90;;;;;;4376946;32;20235;-57
2022/03/29 09:38:00;;;;;;;128.33;122.00;;;10.20;99.90;;;;;;4376429;32;20162;-56
2022/03/29 09:40:35;;;;;;;136.13;129.23;;;10.50;99.90;;;;;;4377428;32;20479;-58
2022/03/29 09:43:04;;;;;;;131.80;124.77;;;10.80;99.90;;;;;;4376456;32;20147;-58
2022/03/29 09:45:42;;;;;;;133.70;127.10;;;11.00;99.90;;;;;;4366501;32;20144;-58
2022/03/29 09:48:26;;;;;;;131.20;124.70;;;11.10;99.90;;;;;;4376773;32;20217;-58
2022/03/29 09:51:21;;;;;;;127.40;121.13;;;11.10;99.90;;;;;;4377344;32;20144;-58
2022/03/29 09:53:51;;;;;;;130.93;124.53;;;11.20;99.90;;;;;;4374119;32;20148;-58
2022/03/29 09:56:24;;;;;;;135.33;128.43;;;11.60;99.90;;;;;;4376592;32;20140;-58
2022/03/29 09:59:06;;;;;;;138.20;131.43;;;11.70;99.90;;;;;;4378136;32;20174;-58
2022/03/29 10:01:46;;;;;;;141.97;135.17;;;11.90;99.90;;;;;;4370046;32;20556;-58
2022/03/29 10:04:16;;;;;;;143.77;136.40;;;12.30;99.90;;;;;;4376731;32;20148;-59
2022/03/29 10:06:45;;;;;;;144.30;137.47;;;12.70;99.90;;;;;;4378068;32;20152;-58
2022/03/29 10:09:29;;;;;;;150.87;143.50;;;13.50;99.90;;;;;;4376945;32;20164;-57
2022/03/29 10:11:58;;;;;;;157.93;150.23;;;14.20;99.90;;;;;;4369747;32;20160;-56
2022/03/29 10:14:27;;;;;;;166.23;158.37;;;14.50;99.90;;;;;;4375481;32;20224;-57
2022/03/29 10:16:55;;;;;;;155.73;148.27;;;14.50;99.90;;;;;;4374542;32;20200;-58
2022/03/29 10:19:23;;;;;;;169.87;161.90;;;14.90;99.90;;;;;;4372129;32;20171;-58
2022/03/29 10:21:53;;;;;;;165.17;157.53;;;15.00;99.90;;;;;;4373282;32;20185;-59
2022/03/29 10:24:22;;;;;;;175.73;167.23;;;15.10;99.90;;;;;;4375407;32;20161;-58
2022/03/29 10:26:51;;;;;;;182.87;174.37;;;14.80;99.90;;;;;;4375064;32;20216;-58
2022/03/29 10:29:18;;;;;;;170.30;162.37;;;14.60;99.90;;;;;;4373676;32;20176;-58
2022/03/29 10:34:42;;;;;;;182.77;174.33;;;14.70;99.90;;;;;;4367015;32;20245;-59
2022/03/29 10:37:14;;;;;;;188.17;179.53;;;14.80;99.90;;;;;;4376521;32;20145;-59
2022/03/29 10:39:47;;;;;;;185.03;176.50;;;14.90;99.90;;;;;;4375952;32;20149;-59
2022/03/29 10:42:35;;;;;;;180.20;172.00;;;15.10;99.90;;;;;;4368156;32;20153;-59
2022/03/29 10:45:09;;;;;;;187.40;178.43;;;15.00;99.90;;;;;;4366728;32;20256;-57
2022/03/29 10:47:36;;;;;;;185.50;176.93;;;15.00;99.80;;;;;;4374951;32;20251;-59
2022/03/29 10:50:05;;;;;;;173.40;165.33;;;14.90;99.00;;;;;;4375149;32;20168;-56
2022/03/29 10:52:40;;;;;;;163.73;155.93;;;14.80;99.70;;;;;;4374338;32;20167;-57
2022/03/29 10:55:21;;;;;;;161.87;154.30;;;15.00;99.40;;;;;;4371695;32;20347;-58
2022/03/29 10:58:10;;;;;;;138.77;132.03;;;15.30;98.30;;;;;;4372826;32;20532;-57
2022/03/29 11:00:38;;;;;;;153.10;145.67;;;15.70;97.80;;;;;;4374452;32;20194;-58
2022/03/29 11:03:10;;;;;;;153.23;146.03;;;15.50;97.50;;;;;;4375358;32;20157;-58
2022/03/29 11:06:11;;;;;;;115.93;110.10;;;15.90;97.20;;;;;;4374456;32;20175;-58
2022/03/29 11:08:41;;;;;;;139.47;132.77;;;15.10;95.10;;;;;;4375726;32;20168;-58
2022/03/29 11:11:09;;;;;;;155.30;148.17;;;15.00;96.50;;;;;;4374997;32;20183;-58
2022/03/29 11:13:38;;;;;;;162.10;154.33;;;14.80;97.70;;;;;;4365039;32;20218;-58
2022/03/29 11:16:33;;;;;;;175.23;166.93;;;14.70;97.50;;;;;;4377038;32;20218;-58
2022/03/29 11:19:01;;;;;;;141.67;135.13;;;14.80;97.60;;;;;;4364842;32;20504;-58
2022/03/29 11:21:33;;;;;;;157.33;149.83;;;14.50;97.50;;;;;;4364764;32;20624;-58
2022/03/29 11:24:04;;;;;;;159.47;151.93;;;14.40;98.00;;;;;;4366481;32;20157;-58
2022/03/29 11:26:32;;;;;;;157.90;150.27;;;14.40;98.40;;;;;;4375990;32;20587;-58
2022/03/29 11:29:00;;;;;;;142.50;135.83;;;14.30;98.20;;;;;;4375223;32;20195;-58
2022/03/29 11:31:35;;;;;;;154.33;146.90;;;14.10;98.00;;;;;;4376064;32;20168;-58
2022/03/29 11:34:02;;;;;;;144.00;137.10;;;14.00;98.80;;;;;;4365442;32;20180;-58
2022/03/29 11:36:30;;;;;;;154.53;147.23;;;14.10;97.80;;;;;;4360780;32;20153;-56
2022/03/29 11:38:57;;;;;;;148.43;141.33;;;13.80;98.10;;;;;;4365030;32;20175;-57
2022/03/29 11:41:28;;;;;;;139.50;132.63;;;14.00;98.00;;;;;;4370866;32;20176;-56
2022/03/29 11:43:57;;;;;;;130.10;123.80;;;14.30;97.60;;;;;;4368889;32;20183;-57
2022/03/29 11:46:25;;;;;;;134.27;127.73;;;14.40;97.30;;;;;;4365779;32;20148;-57
2022/03/29 11:48:52;;;;;;;142.23;135.20;;;14.60;97.40;;;;;;4374854;32;20621;-58
2022/03/29 11:51:21;;;;;;;143.97;136.90;;;14.60;97.50;;;;;;4380411;32;20156;-58
2022/03/29 11:54:01;;;;;;;170.03;161.77;;;14.60;97.40;;;;;;4377070;32;20154;-58
2022/03/29 11:56:31;;;;;;;138.03;131.33;;;14.40;97.70;;;;;;4375367;32;20156;-58
2022/03/29 11:58:58;;;;;;;141.00;134.10;;;14.20;97.60;;;;;;4369587;32;20206;-57
2022/03/29 12:01:31;;;;;;;131.43;124.93;;;13.90;97.70;;;;;;4363903;32;20179;-57
2022/03/29 12:04:03;;;;;;;132.23;125.73;;;13.70;98.00;;;;;;4367224;32;20161;-57
2022/03/29 12:06:31;;;;;;;148.07;141.13;;;13.50;98.30;;;;;;4372491;32;20191;-57
2022/03/29 12:08:59;;;;;;;150.37;143.33;;;13.50;98.80;;;;;;4376093;32;20172;-57
2022/03/29 12:11:31;;;;;;;146.13;138.67;;;13.40;99.00;;;;;;4370300;32;20215;-58
2022/03/29 12:14:06;;;;;;;154.83;147.53;;;13.30;99.30;;;;;;4368074;32;20224;-57
2022/03/29 12:16:38;;;;;;;155.23;148.00;;;13.30;99.50;;;;;;4373089;32;20160;-58
2022/03/29 12:19:09;;;;;;;154.53;147.20;;;13.40;99.40;;;;;;4375652;32;20156;-58
2022/03/29 12:21:39;;;;;;;132.00;125.60;;;13.40;99.20;;;;;;4370962;32;20225;-57
2022/03/29 12:24:09;;;;;;;147.53;140.77;;;13.40;98.50;;;;;;4372139;32;20195;-58
2022/03/29 12:26:40;;;;;;;158.03;150.53;;;13.40;99.10;;;;;;4373965;32;20196;-58
2022/03/29 12:29:11;;;;;;;149.80;142.60;;;13.50;99.10;;;;;;4376520;32;20602;-58
2022/03/29 12:31:39;;;;;;;143.33;136.50;;;13.50;99.20;;;;;;4372350;32;20212;-58
2022/03/29 12:34:08;;;;;;;144.37;137.43;;;13.50;98.90;;;;;;4373295;32;20191;-58